createdAt,value
2023-10-23T00:00:37.440Z,100901.94
2023-10-23T00:03:06.353Z,100902.69
2023-10-23T00:05:35.130Z,100902.44
2023-10-23T00:08:03.750Z,100910.88
2023-10-23T00:10:32.257Z,100902.50
2023-10-23T00:13:00.805Z,100905.06
2023-10-23T00:15:29.491Z,100913.50
2023-10-23T00:17:58.091Z,100915.41
2023-10-23T00:20:26.600Z,100912.94
2023-10-23T00:22:55.245Z,100913.16
2023-10-23T00:25:23.755Z,100919.31
2023-10-23T00:27:52.377Z,100919.50
2023-10-23T00:30:20.944Z,100921.88
2023-10-23T00:32:49.737Z,100928.41
2023-10-23T00:35:18.726Z,100918.97
2023-10-23T00:37:47.248Z,100921.75
2023-10-23T00:40:15.882Z,100911.03
2023-10-23T00:42:45.044Z,100920.75
2023-10-23T00:45:13.630Z,100916.84
2023-10-23T00:47:42.866Z,100923.84
2023-10-23T00:50:12.217Z,100924.69
2023-10-23T00:52:40.946Z,100920.53
2023-10-23T00:55:10.873Z,100916.50
2023-10-23T00:57:40.431Z,100913.16
2023-10-23T01:00:11.234Z,100919.94
2023-10-23T01:02:40.946Z,100922.31
2023-10-23T01:05:09.803Z,100928.28
2023-10-23T01:07:38.378Z,100922.56
2023-10-23T01:10:08.021Z,100929.56
2023-10-23T01:12:36.564Z,100924.59
2023-10-23T01:15:06.117Z,100926.44
2023-10-23T01:17:34.664Z,100927.47
2023-10-23T01:20:03.193Z,100930.13
2023-10-23T01:22:31.815Z,100920.69
2023-10-23T01:25:03.003Z,100919.69
2023-10-23T01:27:31.648Z,100927.22
2023-10-23T01:30:00.311Z,100925.56
2023-10-23T01:32:28.783Z,100928.16
2023-10-23T01:34:58.006Z,100922.25
2023-10-23T01:37:26.488Z,100929.22
2023-10-23T01:39:56.606Z,100928.53
2023-10-23T01:42:30.279Z,100929.56
2023-10-23T01:45:00.638Z,100929.03
2023-10-23T01:47:29.863Z,100922.50
2023-10-23T01:49:58.452Z,100931.25
2023-10-23T01:52:27.158Z,100927.84
2023-10-23T01:54:56.079Z,100934.91
2023-10-23T01:57:25.195Z,100936.06
2023-10-23T01:59:55.169Z,100943.84
2023-10-23T02:02:24.101Z,100940.63
2023-10-23T02:04:52.693Z,100937.91
2023-10-23T02:07:21.684Z,100942.19
2023-10-23T02:09:50.385Z,100938.06
2023-10-23T02:12:19.037Z,100939.03
2023-10-23T02:14:47.555Z,100945.06
2023-10-23T02:17:17.980Z,100949.34
2023-10-23T02:19:47.686Z,100945.97
2023-10-23T02:22:17.228Z,100941.03
2023-10-23T02:24:46.127Z,100943.53
2023-10-23T02:27:14.865Z,100945.38
2023-10-23T02:29:43.515Z,100951.44
2023-10-23T02:32:14.076Z,100946.41
2023-10-23T02:34:44.853Z,100957.50
2023-10-23T02:37:14.122Z,100954.16
2023-10-23T02:39:42.676Z,100945.81
2023-10-23T02:42:13.786Z,100951.06
2023-10-23T02:44:42.422Z,100958.91
2023-10-23T02:47:11.153Z,100958.13
2023-10-23T02:49:41.096Z,100962.41
2023-10-23T02:52:10.165Z,100955.63
2023-10-23T02:54:38.763Z,100960.81
2023-10-23T02:57:08.067Z,100964.44
2023-10-23T02:59:36.741Z,100969.72
2023-10-23T03:02:05.830Z,100965.63
2023-10-23T03:04:35.983Z,100971.56
2023-10-23T03:07:04.676Z,100968.94
2023-10-23T03:09:33.085Z,100970.50
2023-10-23T03:12:01.652Z,100975.53
2023-10-23T03:14:30.161Z,100977.34
2023-10-23T03:16:58.611Z,100977.41
2023-10-23T03:19:27.531Z,100977.41
2023-10-23T03:21:56.096Z,100973.16
2023-10-23T03:24:24.591Z,100978.38
2023-10-23T03:26:53.372Z,100986.97
2023-10-23T03:29:22.377Z,100987.81
2023-10-23T03:31:51.097Z,100983.63
2023-10-23T03:34:19.899Z,100978.72
2023-10-23T03:36:48.528Z,100978.78
2023-10-23T03:39:17.056Z,100982.81
2023-10-23T03:41:45.743Z,100973.34
2023-10-23T03:44:14.452Z,100977.69
2023-10-23T03:46:43.676Z,100970.91
2023-10-23T03:49:13.567Z,100963.09
2023-10-23T03:51:42.459Z,100969.63
2023-10-23T03:54:11.657Z,100962.75
2023-10-23T03:56:40.265Z,100966.31
2023-10-23T03:59:08.691Z,100974.94
2023-10-23T04:01:37.269Z,100987.75
2023-10-23T04:04:06.277Z,100987.09
2023-10-23T04:06:35.041Z,100982.16
2023-10-23T04:09:03.613Z,100981.41
2023-10-23T04:11:32.250Z,100978.88
2023-10-23T04:14:00.696Z,100981.47
2023-10-23T04:16:29.288Z,100985.63
2023-10-23T04:18:57.899Z,100988.16
2023-10-23T04:21:26.484Z,100988.25
2023-10-23T04:23:55.164Z,100987.50
2023-10-23T04:26:23.699Z,100994.25
2023-10-23T04:28:52.195Z,100996.81
2023-10-23T04:31:20.785Z,100988.44
2023-10-23T04:33:49.315Z,100987.66
2023-10-23T04:36:18.546Z,100993.72
2023-10-23T04:38:47.212Z,100990.22
2023-10-23T04:41:16.183Z,100990.16
2023-10-23T04:43:44.753Z,100988.59
2023-10-23T04:46:13.370Z,100996.38
2023-10-23T04:48:42.038Z,101002.44
2023-10-23T04:51:10.633Z,101006.66
2023-10-23T04:53:39.618Z,100998.25
2023-10-23T04:56:08.777Z,101000.03
2023-10-23T04:58:37.511Z,101002.59
2023-10-23T05:01:06.257Z,101001.69
2023-10-23T05:03:34.851Z,101003.38
2023-10-23T05:06:03.395Z,100996.50
2023-10-23T05:08:32.719Z,101000.78
2023-10-23T05:11:10.105Z,100999.22
2023-10-23T05:13:38.700Z,100991.66
2023-10-23T05:16:08.945Z,100991.47
2023-10-23T05:18:37.785Z,100998.22
2023-10-23T05:21:12.275Z,101001.63
2023-10-23T05:23:42.513Z,100996.59
2023-10-23T05:26:14.166Z,100988.94
2023-10-23T05:28:43.873Z,100994.78
2023-10-23T05:31:12.471Z,100993.03
2023-10-23T05:33:41.196Z,100992.19
2023-10-23T05:36:14.046Z,101002.50
2023-10-23T05:38:43.148Z,100994.69
2023-10-23T05:41:12.184Z,100999.63
2023-10-23T05:43:40.689Z,101004.66
2023-10-23T05:46:09.512Z,101006.41
2023-10-23T05:48:40.735Z,100998.13
2023-10-23T05:51:09.631Z,101012.81
2023-10-23T05:53:38.365Z,101006.00
2023-10-23T05:56:09.057Z,101001.84
2023-10-23T05:58:37.917Z,101008.69
2023-10-23T06:01:11.783Z,101014.63
2023-10-23T06:03:40.746Z,101013.56
2023-10-23T06:06:09.648Z,101008.44
2023-10-23T06:08:38.139Z,101008.44
2023-10-23T06:11:11.287Z,101016.94
2023-10-23T06:13:41.628Z,101010.25
2023-10-23T06:16:10.238Z,101010.16
2023-10-23T06:18:40.672Z,101013.47
2023-10-23T06:21:10.299Z,101019.19
2023-10-23T06:23:42.295Z,101019.06
2023-10-23T06:26:11.692Z,101010.19
2023-10-23T06:28:40.176Z,101018.91
2023-10-23T06:31:12.767Z,101014.41
2023-10-23T06:33:41.546Z,101013.78
2023-10-23T06:36:10.984Z,101014.50
2023-10-23T06:38:40.458Z,101021.38
2023-10-23T06:41:10.113Z,101019.84
2023-10-23T06:43:39.072Z,101021.63
2023-10-23T06:46:08.066Z,101012.13
2023-10-23T06:48:36.670Z,101018.81
2023-10-23T06:51:06.546Z,101020.44
2023-10-23T06:53:36.600Z,101023.75
2023-10-23T06:56:06.005Z,101027.03
2023-10-23T06:58:34.640Z,101030.31
2023-10-23T07:01:10.445Z,101024.16
2023-10-23T07:03:39.517Z,101020.56
2023-10-23T07:06:09.758Z,101023.66
2023-10-23T07:08:40.881Z,101016.22
2023-10-23T07:11:24.313Z,101015.72
2023-10-23T07:13:52.841Z,101013.66
2023-10-23T07:16:21.855Z,101013.41
2023-10-23T07:18:50.617Z,101015.50
2023-10-23T07:21:20.692Z,101009.09
2023-10-23T07:23:49.279Z,101021.41
2023-10-23T07:26:18.463Z,101021.00
2023-10-23T07:28:47.300Z,101020.63
2023-10-23T07:31:16.464Z,101021.06
2023-10-23T07:33:45.455Z,101023.28
2023-10-23T07:36:16.642Z,101011.72
2023-10-23T07:38:47.131Z,101013.09
2023-10-23T07:41:16.179Z,101015.41
2023-10-23T07:43:45.589Z,101010.88
2023-10-23T07:46:17.991Z,101011.44
2023-10-23T07:48:48.069Z,101006.97
2023-10-23T07:51:17.434Z,101005.75
2023-10-23T07:53:46.140Z,101003.22
2023-10-23T07:56:14.949Z,101008.88
2023-10-23T07:58:43.640Z,101008.72
2023-10-23T08:01:15.667Z,101014.16
2023-10-23T08:03:44.526Z,100997.75
2023-10-23T08:06:14.916Z,100999.06
2023-10-23T08:08:47.853Z,101002.44
2023-10-23T08:11:16.373Z,101000.41
2023-10-23T08:13:45.286Z,101008.56
2023-10-23T08:16:13.898Z,101006.53
2023-10-23T08:18:43.193Z,101011.41
2023-10-23T08:21:16.541Z,101006.53
2023-10-23T08:23:48.367Z,101003.22
2023-10-23T08:26:17.338Z,100997.81
2023-10-23T08:31:34.967Z,100986.50
2023-10-23T08:34:10.487Z,100992.16
2023-10-23T08:36:40.068Z,100988.94
2023-10-23T08:39:09.545Z,100982.34
2023-10-23T08:41:42.506Z,100969.06
2023-10-23T08:44:12.304Z,100984.38
2023-10-23T08:46:43.229Z,100972.13
2023-10-23T08:49:12.136Z,100973.38
2023-10-23T08:51:47.600Z,100983.94
2023-10-23T08:54:22.656Z,100980.59
2023-10-23T08:57:02.517Z,100975.31
2023-10-23T08:59:31.638Z,100974.44
2023-10-23T09:02:01.867Z,100972.22
2023-10-23T09:04:31.728Z,100972.69
2023-10-23T09:07:02.035Z,100973.88
2023-10-23T09:09:32.518Z,100972.50
2023-10-23T09:12:01.223Z,100971.25
2023-10-23T09:14:33.570Z,100967.59
2023-10-23T09:17:02.351Z,100973.56
2023-10-23T09:19:40.866Z,100977.75
2023-10-23T09:22:10.191Z,100978.97
2023-10-23T09:24:39.997Z,100969.78
2023-10-23T09:27:08.770Z,100967.50
2023-10-23T09:29:37.284Z,100966.00
2023-10-23T09:32:07.509Z,100955.13
2023-10-23T09:34:44.048Z,100970.56
2023-10-23T09:37:13.010Z,100972.38
2023-10-23T09:39:42.545Z,100965.63
2023-10-23T09:42:11.817Z,100962.38
2023-10-23T09:44:45.184Z,100960.38
2023-10-23T09:47:17.072Z,100958.72
2023-10-23T09:49:48.105Z,100962.91
2023-10-23T09:52:17.419Z,100963.41
2023-10-23T09:54:54.073Z,100957.72
2023-10-23T09:57:52.213Z,100957.88
2023-10-23T10:00:21.721Z,100958.81
2023-10-23T10:03:01.618Z,100948.09
2023-10-23T10:05:51.927Z,100958.63
2023-10-23T10:08:27.178Z,100944.97
2023-10-23T10:10:58.754Z,100944.03
2023-10-23T10:13:30.813Z,100938.44
2023-10-23T10:16:01.538Z,100931.88
2023-10-23T10:18:31.762Z,100932.31
2023-10-23T10:21:07.715Z,100926.31
2023-10-23T10:23:39.622Z,100920.47
2023-10-23T10:26:09.247Z,100924.28
2023-10-23T10:28:41.654Z,100918.03
2023-10-23T10:31:11.043Z,100918.63
2023-10-23T10:34:29.020Z,100917.16
2023-10-23T10:36:47.444Z,100907.16
2023-10-23T10:39:19.144Z,100898.16
2023-10-23T10:41:47.912Z,100894.81
2023-10-23T10:44:20.582Z,100893.88
2023-10-23T10:46:55.361Z,100884.53
2023-10-23T10:49:24.787Z,100884.94
2023-10-23T10:51:54.318Z,100874.44
2023-10-23T10:54:23.424Z,100877.81
2023-10-23T10:56:53.668Z,100865.38
2023-10-23T10:59:29.149Z,100869.53
2023-10-23T11:01:58.124Z,100873.44
2023-10-23T11:04:27.231Z,100872.59
2023-10-23T11:06:56.455Z,100868.94
2023-10-23T11:09:25.019Z,100861.50
2023-10-23T11:11:53.469Z,100864.19
2023-10-23T11:14:21.972Z,100852.50
2023-10-23T11:16:50.799Z,100849.53
2023-10-23T11:19:19.686Z,100846.88
2023-10-23T11:21:48.171Z,100837.06
2023-10-23T11:24:17.035Z,100834.84
2023-10-23T11:26:47.407Z,100834.97
2023-10-23T11:29:18.808Z,100825.28
2023-10-23T11:31:47.484Z,100822.41
2023-10-23T11:34:18.163Z,100827.53
2023-10-23T11:36:51.141Z,100830.94
2023-10-23T11:39:22.577Z,100823.34
2023-10-23T11:42:01.748Z,100815.75
2023-10-23T11:44:36.376Z,100812.78
2023-10-23T11:47:07.178Z,100811.69
2023-10-23T11:49:36.168Z,100817.78
2023-10-23T11:52:06.215Z,100811.84
2023-10-23T11:54:34.851Z,100798.66
2023-10-23T11:57:03.451Z,100798.91
2023-10-23T11:59:32.108Z,100797.25
2023-10-23T12:02:01.510Z,100789.31
2023-10-23T12:04:37.260Z,100788.94
2023-10-23T12:07:06.455Z,100777.38
2023-10-23T12:09:35.414Z,100776.09
2023-10-23T12:12:06.204Z,100769.34
2023-10-23T12:14:34.778Z,100773.34
2023-10-23T12:17:05.308Z,100764.00
2023-10-23T12:19:33.903Z,100763.81
2023-10-23T12:22:02.488Z,100762.97
2023-10-23T12:24:31.074Z,100761.84
2023-10-23T12:26:59.673Z,100753.44
2023-10-23T12:29:28.530Z,100753.97
2023-10-23T12:32:00.610Z,100745.50
2023-10-23T12:34:32.897Z,100744.53
2023-10-23T12:37:01.985Z,100744.75
2023-10-23T12:39:33.570Z,100726.53
2023-10-23T12:42:03.767Z,100731.53
2023-10-23T12:44:32.671Z,100725.41
2023-10-23T12:47:01.548Z,100731.06
2023-10-23T12:49:30.895Z,100714.06
2023-10-23T12:51:59.631Z,100721.25
2023-10-23T12:54:28.762Z,100732.75
2023-10-23T12:56:59.362Z,100730.41
2023-10-23T12:59:28.007Z,100732.34
2023-10-23T13:01:56.535Z,100738.44
2023-10-23T13:04:25.229Z,100728.94
2023-10-23T13:06:55.902Z,100722.91
2023-10-23T13:09:26.796Z,100717.19
2023-10-23T13:11:55.899Z,100719.97
2023-10-23T13:14:24.390Z,100708.28
2023-10-23T13:16:53.045Z,100709.44
2023-10-23T13:19:21.793Z,100698.41
2023-10-23T13:21:50.457Z,100695.06
2023-10-23T13:24:19.734Z,100694.69
2023-10-23T13:26:48.241Z,100681.16
2023-10-23T13:29:16.877Z,100678.06
2023-10-23T13:31:50.853Z,100670.97
2023-10-23T13:34:20.418Z,100671.31
2023-10-23T13:36:49.024Z,100666.81
2023-10-23T13:39:18.022Z,100664.50
2023-10-23T13:41:47.578Z,100658.22
2023-10-23T13:44:16.190Z,100647.66
2023-10-23T13:46:44.903Z,100639.81
2023-10-23T13:49:14.079Z,100638.13
2023-10-23T13:51:42.904Z,100633.97
2023-10-23T13:54:11.344Z,100629.94
2023-10-23T13:56:39.962Z,100626.72
2023-10-23T13:59:08.583Z,100625.50
2023-10-23T14:01:37.166Z,100622.03
2023-10-23T14:04:06.456Z,100611.13
2023-10-23T14:06:35.705Z,100607.22
2023-10-23T14:09:40.730Z,100603.03
2023-10-23T14:11:59.987Z,100595.88
2023-10-23T14:14:31.334Z,100590.19
2023-10-23T14:17:00.841Z,100585.34
2023-10-23T14:19:42.423Z,100595.25
2023-10-23T14:22:15.681Z,100586.94
2023-10-23T14:24:44.390Z,100582.38
2023-10-23T14:27:13.099Z,100576.06
2023-10-23T14:29:41.981Z,100573.03
2023-10-23T14:32:10.802Z,100568.06
2023-10-23T14:34:39.513Z,100563.19
2023-10-23T14:37:08.632Z,100557.69
2023-10-23T14:39:37.166Z,100550.88
2023-10-23T14:42:07.236Z,100546.66
2023-10-23T14:44:39.017Z,100549.06
2023-10-23T14:47:07.913Z,100542.78
2023-10-23T14:49:36.569Z,100543.38
2023-10-23T14:52:06.584Z,100543.09
2023-10-23T14:54:35.291Z,100530.09
2023-10-23T14:57:05.797Z,100523.44
2023-10-23T14:59:34.953Z,100516.16
2023-10-23T15:02:03.597Z,100507.06
2023-10-23T15:04:33.346Z,100508.09
2023-10-23T15:07:04.224Z,100503.88
2023-10-23T15:09:33.254Z,100495.56
2023-10-23T15:12:01.844Z,100488.91
2023-10-23T15:14:30.365Z,100490.84
2023-10-23T15:17:00.247Z,100482.25
2023-10-23T15:19:29.061Z,100474.78
2023-10-23T15:21:57.622Z,100464.53
2023-10-23T15:24:26.167Z,100463.81
2023-10-23T15:26:54.737Z,100459.56
2023-10-23T15:29:23.461Z,100450.34
2023-10-23T15:31:54.174Z,100453.09
2023-10-23T15:34:23.557Z,100456.22
2023-10-23T15:36:52.843Z,100448.84
2023-10-23T15:39:24.429Z,100439.16
2023-10-23T15:41:55.587Z,100433.00
2023-10-23T15:44:28.454Z,100423.94
2023-10-23T15:46:57.064Z,100421.47
2023-10-23T15:49:25.844Z,100419.41
2023-10-23T15:51:54.553Z,100424.69
2023-10-23T15:54:23.152Z,100426.53
2023-10-23T15:56:51.604Z,100430.22
2023-10-23T15:59:20.036Z,100432.13
2023-10-23T16:01:48.570Z,100425.50
2023-10-23T16:04:17.263Z,100427.97
2023-10-23T16:06:46.042Z,100428.91
2023-10-23T16:09:24.541Z,100427.41
2023-10-23T16:11:57.114Z,100436.84
2023-10-23T16:14:49.894Z,100438.75
2023-10-23T16:17:22.755Z,100429.63
2023-10-23T16:19:51.845Z,100422.63
2023-10-23T16:22:21.681Z,100431.47
2023-10-23T16:24:50.481Z,100434.31
2023-10-23T16:27:19.282Z,100442.13
2023-10-23T16:29:50.219Z,100438.72
2023-10-23T16:32:19.291Z,100440.66
2023-10-23T16:34:50.711Z,100441.75
2023-10-23T16:37:19.353Z,100438.28
2023-10-23T16:39:47.821Z,100441.56
2023-10-23T16:42:16.326Z,100455.56
2023-10-23T16:44:55.433Z,100459.06
2023-10-23T16:47:25.248Z,100451.31
2023-10-23T16:49:56.699Z,100452.06
2023-10-23T16:52:25.285Z,100451.50
2023-10-23T16:54:54.101Z,100447.66
2023-10-23T16:57:22.632Z,100439.09
2023-10-23T16:59:51.207Z,100440.66
2023-10-23T17:02:19.769Z,100449.66
2023-10-23T17:04:50.525Z,100460.31
2023-10-23T17:07:19.675Z,100459.75
2023-10-23T17:09:48.459Z,100475.41
2023-10-23T17:12:17.458Z,100467.16
2023-10-23T17:14:46.991Z,100449.03
2023-10-23T17:17:15.495Z,100454.38
2023-10-23T17:19:49.304Z,100440.06
2023-10-23T17:22:18.126Z,100448.06
2023-10-23T17:24:46.786Z,100434.69
2023-10-23T17:27:15.355Z,100438.44
2023-10-23T17:29:44.492Z,100436.28
2023-10-23T17:32:13.261Z,100431.28
2023-10-23T17:34:42.111Z,100421.50
2023-10-23T17:37:10.803Z,100410.94
2023-10-23T17:39:39.422Z,100399.72
2023-10-23T17:42:08.391Z,100386.38
2023-10-23T17:44:36.943Z,100381.53
2023-10-23T17:47:05.483Z,100368.06
2023-10-23T17:49:34.161Z,100367.78
2023-10-23T17:52:02.910Z,100369.44
2023-10-23T17:54:34.105Z,100354.50
2023-10-23T17:57:02.732Z,100337.53
2023-10-23T17:59:31.287Z,100332.72
2023-10-23T18:01:59.858Z,100323.03
2023-10-23T18:04:29.064Z,100327.03
2023-10-23T18:06:57.581Z,100333.81
2023-10-23T18:09:26.210Z,100332.56
2023-10-23T18:11:54.721Z,100325.00
2023-10-23T18:14:24.400Z,100298.97
2023-10-23T18:16:53.375Z,100301.81
2023-10-23T18:19:22.154Z,100298.19
2023-10-23T18:21:50.931Z,100315.38
2023-10-23T18:24:19.595Z,100314.28
2023-10-23T18:26:48.196Z,100313.97
2023-10-23T18:29:17.044Z,100322.81
2023-10-23T18:31:46.952Z,100318.72
2023-10-23T18:34:15.603Z,100330.53
2023-10-23T18:36:44.199Z,100320.81
2023-10-23T18:39:12.781Z,100309.44
2023-10-23T18:41:41.368Z,100317.00
2023-10-23T18:44:10.248Z,100317.28
2023-10-23T18:46:39.121Z,100304.31
2023-10-23T18:49:07.865Z,100296.69
2023-10-23T18:51:36.442Z,100300.81
2023-10-23T18:54:05.171Z,100298.50
2023-10-23T18:56:34.939Z,100300.97
2023-10-23T18:59:03.809Z,100297.34
2023-10-23T19:01:32.309Z,100298.34
2023-10-23T19:04:01.074Z,100303.66
2023-10-23T19:06:31.814Z,100295.94
2023-10-23T19:09:05.898Z,100298.09
2023-10-23T19:11:34.477Z,100289.81
2023-10-23T19:14:03.217Z,100290.53
2023-10-23T19:16:34.642Z,100288.81
2023-10-23T19:19:03.438Z,100277.59
2023-10-23T19:21:32.103Z,100269.09
2023-10-23T19:24:00.631Z,100280.91
2023-10-23T19:26:29.487Z,100268.94
2023-10-23T19:28:58.101Z,100272.44
2023-10-23T19:31:27.827Z,100266.28
2023-10-23T19:33:57.152Z,100264.66
2023-10-23T19:36:28.950Z,100252.66
2023-10-23T19:38:58.221Z,100252.59
2023-10-23T19:41:51.954Z,100237.75
2023-10-23T19:44:21.423Z,100240.38
2023-10-23T19:46:50.780Z,100233.31
2023-10-23T19:49:22.195Z,100232.59
2023-10-23T19:51:55.519Z,100234.06
2023-10-23T19:54:37.396Z,100238.47
2023-10-23T19:57:12.154Z,100242.38
2023-10-23T19:59:44.344Z,100228.44
2023-10-23T20:02:13.985Z,100234.41
2023-10-23T20:04:42.672Z,100221.78
2023-10-23T20:07:11.454Z,100220.78
2023-10-23T20:09:40.143Z,100212.00
2023-10-23T20:12:09.202Z,100203.53
2023-10-23T20:14:37.772Z,100200.78
2023-10-23T20:17:06.619Z,100197.28
2023-10-23T20:19:36.785Z,100193.63
2023-10-23T20:22:06.258Z,100184.91
2023-10-23T20:24:35.305Z,100189.91
2023-10-23T20:27:04.419Z,100182.25
2023-10-23T20:29:32.970Z,100199.34
2023-10-23T20:32:02.855Z,100194.06
2023-10-23T20:34:32.009Z,100186.34
2023-10-23T20:37:00.551Z,100181.19
2023-10-23T20:39:29.153Z,100174.47
2023-10-23T20:41:57.828Z,100168.81
2023-10-23T20:44:26.391Z,100150.69
2023-10-23T20:46:55.689Z,100143.22
2023-10-23T20:49:24.294Z,100144.97
2023-10-23T20:51:52.887Z,100143.91
2023-10-23T20:54:22.160Z,100143.22
2023-10-23T20:56:50.672Z,100136.06
2023-10-23T20:59:19.254Z,100138.94
2023-10-23T21:01:47.769Z,100142.50
2023-10-23T21:04:16.935Z,100145.41
2023-10-23T21:06:45.738Z,100136.97
2023-10-23T21:09:14.233Z,100130.47
2023-10-23T21:11:42.895Z,100134.00
2023-10-23T21:14:11.486Z,100128.97
2023-10-23T21:16:45.784Z,100117.03
2023-10-23T21:19:16.230Z,100119.88
2023-10-23T21:21:49.717Z,100105.09
2023-10-23T21:24:18.687Z,100089.75
2023-10-23T21:26:47.270Z,100089.00
2023-10-23T21:29:25.651Z,100075.22
2023-10-23T21:31:55.438Z,100083.03
2023-10-23T21:34:24.995Z,100072.72
2023-10-23T21:36:53.613Z,100073.56
2023-10-23T21:39:22.323Z,100072.72
2023-10-23T21:41:50.990Z,100069.25
2023-10-23T21:44:19.535Z,100073.47
2023-10-23T21:46:49.477Z,100059.28
2023-10-23T21:49:18.218Z,100051.88
2023-10-23T21:51:47.534Z,100046.03
2023-10-23T21:54:16.857Z,100043.56
2023-10-23T21:57:19.776Z,100049.72
2023-10-23T21:59:36.188Z,100039.25
2023-10-23T22:02:06.538Z,100033.53
2023-10-23T22:04:35.818Z,100032.59
2023-10-23T22:07:05.373Z,100040.16
2023-10-23T22:09:37.559Z,100038.59
2023-10-23T22:12:07.563Z,100038.59
2023-10-23T22:14:36.890Z,100032.84
2023-10-23T22:17:05.873Z,100037.44
2023-10-23T22:19:35.092Z,100029.59
2023-10-23T22:22:04.388Z,100030.97
2023-10-23T22:24:32.971Z,100021.41
2023-10-23T22:27:01.728Z,100014.78
2023-10-23T22:29:30.260Z,100011.56
2023-10-23T22:31:58.981Z,100012.38
2023-10-23T22:34:27.712Z,100010.22
2023-10-23T22:37:46.305Z,100006.72
2023-10-23T22:39:44.727Z,100005.06
2023-10-23T22:42:13.339Z,100001.25
2023-10-23T22:44:42.479Z,99999.75
2023-10-23T22:47:11.995Z,100000.41
2023-10-23T22:49:42.334Z,99992.59
2023-10-23T22:52:13.354Z,99983.31
2023-10-23T22:54:43.332Z,99981.47
2023-10-23T22:57:16.999Z,99973.69
2023-10-23T22:59:46.560Z,99972.00
2023-10-23T23:02:15.754Z,99965.22
2023-10-23T23:04:47.278Z,99969.53
2023-10-23T23:07:17.446Z,99967.03
2023-10-23T23:09:46.546Z,99958.50
2023-10-23T23:12:16.384Z,99963.66
2023-10-23T23:14:45.698Z,99958.41
2023-10-23T23:17:22.398Z,99959.16
2023-10-23T23:19:54.196Z,99960.97
2023-10-23T23:22:22.981Z,99964.22
2023-10-23T23:24:51.591Z,99956.22
2023-10-23T23:27:20.825Z,99953.00
2023-10-23T23:29:49.283Z,99958.25
2023-10-23T23:32:18.669Z,99951.06
2023-10-23T23:34:47.814Z,99950.91
2023-10-23T23:37:16.736Z,99952.75
2023-10-23T23:39:45.348Z,99944.75
2023-10-23T23:42:13.809Z,99956.78
2023-10-23T23:44:43.153Z,99956.06
2023-10-23T23:47:11.889Z,99968.00
2023-10-23T23:49:41.671Z,99957.50
2023-10-23T23:52:10.587Z,99957.50
2023-10-23T23:54:39.407Z,99959.34
2023-10-23T23:57:09.298Z,99957.50
2023-10-23T23:59:37.786Z,99951.56
